createdAt,value
2019-05-09T00:02:13.938Z,97561.11
2019-05-09T00:08:18.482Z,97555.31
2019-05-09T00:14:23.832Z,97551.64
2019-05-09T00:20:45.269Z,97556.44
2019-05-09T00:26:49.815Z,97555.58
2019-05-09T00:32:54.410Z,97550.91
2019-05-09T00:38:58.949Z,97549.16
2019-05-09T00:45:05.920Z,97542.85
2019-05-09T00:51:10.685Z,97542.86
2019-05-09T00:57:16.914Z,97542.95
2019-05-09T01:03:23.438Z,97541.59
2019-05-09T01:09:27.962Z,97539.66
2019-05-09T01:15:33.440Z,97546.47
2019-05-09T01:21:38.191Z,97544.30
2019-05-09T01:27:43.241Z,97551.64
2019-05-09T01:33:47.775Z,97559.67
2019-05-09T01:39:53.412Z,97567.09
2019-05-09T01:45:58.153Z,97568.69
2019-05-09T01:52:03.567Z,97578.00
2019-05-09T01:58:08.363Z,97572.58
2019-05-09T02:04:13.670Z,97566.35
2019-05-09T02:10:18.500Z,97576.38
2019-05-09T02:16:24.708Z,97588.40
2019-05-09T02:22:35.839Z,97581.95
2019-05-09T02:28:40.409Z,97589.54
2019-05-09T02:34:45.029Z,97594.77
2019-05-09T02:40:49.579Z,97609.58
2019-05-09T02:47:04.668Z,97608.55
2019-05-09T02:53:09.243Z,97608.44
2019-05-09T02:59:18.652Z,97604.48
2019-05-09T03:05:21.735Z,97592.92
2019-05-09T03:11:28.946Z,97604.65
2019-05-09T03:17:32.720Z,97617.45
2019-05-09T03:23:38.889Z,97621.71
2019-05-09T03:29:49.454Z,97627.07
2019-05-09T03:35:54.195Z,97634.08
2019-05-09T03:41:58.812Z,97636.01
2019-05-09T03:48:11.189Z,97636.14
2019-05-09T03:54:18.153Z,97643.92
2019-05-09T04:00:22.537Z,97651.33
2019-05-09T04:06:28.234Z,97646.94
2019-05-09T04:12:32.915Z,97641.05
2019-05-09T04:18:37.696Z,97653.21
2019-05-09T04:24:44.136Z,97661.95
2019-05-09T04:30:48.690Z,97665.45
2019-05-09T04:36:53.241Z,97675.85
2019-05-09T04:43:10.982Z,97671.00
2019-05-09T04:49:04.430Z,97669.81
2019-05-09T04:55:10.237Z,97675.70
2019-05-09T05:01:31.249Z,97674.34
2019-05-09T05:07:37.649Z,97666.27
2019-05-09T05:13:42.176Z,97662.58
2019-05-09T05:19:47.639Z,97655.77
2019-05-09T05:25:52.566Z,97661.27
2019-05-09T05:31:58.775Z,97658.22
2019-05-09T05:38:03.392Z,97670.44
2019-05-09T05:44:08.594Z,97679.70
2019-05-09T05:50:13.445Z,97681.41
2019-05-09T05:56:17.957Z,97682.55
2019-05-09T06:02:22.513Z,97682.70
2019-05-09T06:08:27.625Z,97694.67
2019-05-09T06:14:32.283Z,97699.43
2019-05-09T06:20:38.585Z,97697.41
2019-05-09T06:26:43.325Z,97699.91
2019-05-09T06:32:47.967Z,97704.23
2019-05-09T06:38:52.640Z,97691.94
2019-05-09T06:45:10.844Z,97693.25
2019-05-09T06:51:18.894Z,97710.11
2019-05-09T06:57:21.703Z,97712.62
2019-05-09T07:03:44.011Z,97712.30
2019-05-09T07:09:50.220Z,97719.44
2019-05-09T07:15:54.804Z,97718.49
2019-05-09T07:22:11.177Z,97715.71
2019-05-09T07:28:17.855Z,97719.46
2019-05-09T07:34:23.665Z,97718.99
2019-05-09T07:40:30.761Z,97712.91
2019-05-09T07:46:34.559Z,97710.77
2019-05-09T07:52:39.127Z,97713.02
2019-05-09T07:58:43.695Z,97707.63
2019-05-09T08:04:49.079Z,97703.70
2019-05-09T08:10:53.899Z,97703.98
2019-05-09T08:16:58.533Z,97706.01
2019-05-09T08:23:03.103Z,97702.42
2019-05-09T08:29:09.439Z,97700.44
2019-05-09T08:35:14.080Z,97713.55
2019-05-09T08:41:19.066Z,97714.99
2019-05-09T08:47:23.686Z,97710.17
2019-05-09T08:53:28.247Z,97710.44
2019-05-09T08:59:35.015Z,97701.91
2019-05-09T09:05:43.099Z,97704.53
2019-05-09T09:11:47.818Z,97697.39
2019-05-09T09:17:52.861Z,97696.16
2019-05-09T09:23:58.196Z,97686.39
2019-05-09T09:30:17.652Z,97694.17
2019-05-09T09:36:11.484Z,97688.52
2019-05-09T09:42:19.911Z,97687.88
2019-05-09T09:48:23.221Z,97689.70
2019-05-09T09:54:28.576Z,97694.36
2019-05-09T10:00:53.954Z,97700.50
2019-05-09T10:06:58.975Z,97689.40
2019-05-09T10:13:04.330Z,97709.28
2019-05-09T10:19:23.096Z,97695.12
2019-05-09T10:25:27.900Z,97702.95
2019-05-09T10:31:32.744Z,97687.42
2019-05-09T10:37:39.224Z,97700.19
2019-05-09T10:43:48.570Z,97695.67
2019-05-09T10:49:53.056Z,97705.00
2019-05-09T10:55:57.830Z,97704.86
2019-05-09T11:02:02.641Z,97692.59
2019-05-09T11:08:08.317Z,97692.52
2019-05-09T11:14:27.920Z,97681.88
2019-05-09T11:20:28.180Z,97674.39
2019-05-09T11:26:31.862Z,97676.66
2019-05-09T11:32:38.564Z,97666.91
2019-05-09T11:38:44.146Z,97665.12
2019-05-09T11:44:49.170Z,97669.81
2019-05-09T11:50:53.729Z,97662.14
2019-05-09T11:56:58.314Z,97670.05
2019-05-09T12:03:02.898Z,97654.95
2019-05-09T12:09:09.532Z,97656.02
2019-05-09T12:15:15.888Z,97661.31
2019-05-09T12:21:20.471Z,97647.80
2019-05-09T12:27:25.140Z,97654.97
2019-05-09T12:33:33.128Z,97668.13
2019-05-09T12:39:37.854Z,97664.04
2019-05-09T12:45:42.677Z,97661.70
2019-05-09T12:51:47.425Z,97666.94
2019-05-09T12:57:53.231Z,97661.70
2019-05-09T13:03:58.427Z,97664.48
2019-05-09T13:10:03.136Z,97660.67
2019-05-09T13:16:18.349Z,97668.41
2019-05-09T13:22:23.065Z,97670.83
2019-05-09T13:28:27.664Z,97666.41
2019-05-09T13:34:32.479Z,97665.42
2019-05-09T13:40:37.152Z,97668.09
2019-05-09T13:46:41.814Z,97669.16
2019-05-09T13:52:48.028Z,97668.41
2019-05-09T13:58:52.975Z,97668.27
2019-05-09T14:04:58.439Z,97679.34
2019-05-09T14:11:03.119Z,97684.25
2019-05-09T14:17:08.482Z,97698.52
2019-05-09T14:23:13.979Z,97696.50
2019-05-09T14:29:20.437Z,97702.73
2019-05-09T14:35:25.026Z,97707.81
2019-05-09T14:41:29.595Z,97702.64
2019-05-09T14:47:34.149Z,97716.31
2019-05-09T14:53:39.115Z,97708.07
2019-05-09T14:59:43.860Z,97706.87
2019-05-09T15:05:48.406Z,97705.58
2019-05-09T15:11:53.016Z,97707.16
2019-05-09T15:17:58.419Z,97711.07
2019-05-09T15:24:03.172Z,97708.05
2019-05-09T15:30:08.845Z,97701.92
2019-05-09T15:36:13.465Z,97708.95
2019-05-09T15:42:18.430Z,97709.47
2019-05-09T15:48:23.051Z,97718.52
2019-05-09T15:54:29.373Z,97722.27
2019-05-09T16:00:34.171Z,97716.38
2019-05-09T16:06:39.285Z,97722.46
2019-05-09T16:12:44.055Z,97721.53
2019-05-09T16:18:48.967Z,97721.84
2019-05-09T16:24:53.625Z,97728.45
2019-05-09T16:30:58.620Z,97727.89
2019-05-09T16:37:03.250Z,97739.36
2019-05-09T16:43:09.091Z,97742.90
2019-05-09T16:49:16.675Z,97733.38
2019-05-09T16:55:21.839Z,97743.43
2019-05-09T17:01:28.381Z,97742.77
2019-05-09T17:07:32.759Z,97751.73
2019-05-09T17:13:37.346Z,97756.62
2019-05-09T17:19:41.961Z,97753.63
2019-05-09T17:25:48.046Z,97758.22
2019-05-09T17:31:52.797Z,97760.69
2019-05-09T17:37:57.491Z,97762.34
2019-05-09T17:44:02.113Z,97771.27
2019-05-09T17:50:08.387Z,97773.11
2019-05-09T17:56:12.951Z,97778.79
2019-05-09T18:02:17.639Z,97786.59
2019-05-09T18:08:22.190Z,97788.18
2019-05-09T18:14:27.655Z,97796.83
2019-05-09T18:20:32.403Z,97798.14
2019-05-09T18:26:38.192Z,97808.36
2019-05-09T18:32:47.708Z,97803.34
2019-05-09T18:38:52.455Z,97809.75
2019-05-09T18:44:59.512Z,97814.02
2019-05-09T18:51:03.377Z,97822.13
2019-05-09T18:57:08.014Z,97825.94
2019-05-09T19:03:12.625Z,97834.42
2019-05-09T19:09:17.175Z,97838.50
2019-05-09T19:15:38.844Z,97850.20
2019-05-09T19:21:45.238Z,97859.89
2019-05-09T19:27:49.914Z,97873.02
2019-05-09T19:33:54.589Z,97871.75
2019-05-09T19:39:59.143Z,97872.97
2019-05-09T19:46:03.709Z,97877.50
2019-05-09T19:52:08.239Z,97880.46
2019-05-09T19:58:12.803Z,97896.83
2019-05-09T20:04:17.361Z,97900.06
2019-05-09T20:10:21.949Z,97911.20
2019-05-09T20:16:36.239Z,97912.92
2019-05-09T20:22:51.866Z,97918.40
2019-05-09T20:28:47.151Z,97923.47
2019-05-09T20:34:51.711Z,97943.48
2019-05-09T20:40:56.516Z,97945.30
2019-05-09T20:47:01.237Z,97955.84
2019-05-09T20:53:09.708Z,97969.02
2019-05-09T20:59:12.612Z,97985.21
2019-05-09T21:05:18.880Z,97985.31
2019-05-09T21:11:23.608Z,97998.94
2019-05-09T21:17:28.451Z,98002.56
2019-05-09T21:23:33.178Z,98001.70
2019-05-09T21:29:37.975Z,98009.83
2019-05-09T21:35:42.633Z,98006.29
2019-05-09T21:41:47.217Z,98002.69
2019-05-09T21:47:51.781Z,98001.81
2019-05-09T21:53:56.308Z,98014.21
2019-05-09T22:00:00.941Z,98027.09
2019-05-09T22:06:05.635Z,98032.08
2019-05-09T22:12:10.392Z,98039.84
2019-05-09T22:18:15.047Z,98048.83
2019-05-09T22:24:19.609Z,98051.29
2019-05-09T22:30:24.965Z,98057.41
2019-05-09T22:36:29.537Z,98063.03
2019-05-09T22:42:34.160Z,98070.18
2019-05-09T22:48:38.713Z,98072.72
2019-05-09T22:54:43.287Z,98063.13
2019-05-09T23:00:47.990Z,98069.73
2019-05-09T23:06:52.548Z,98074.77
2019-05-09T23:12:57.156Z,98068.05
2019-05-09T23:19:01.786Z,98075.12
2019-05-09T23:25:08.047Z,98077.31
2019-05-09T23:31:14.239Z,98080.98
2019-05-09T23:37:18.792Z,98083.09
2019-05-09T23:43:23.347Z,98081.22
2019-05-09T23:49:27.892Z,98073.75
2019-05-09T23:55:50.402Z,98069.91
